ARG2560 VTSP-VCBI
Flight info
| Callsign | ARG2560 |
|---|---|
| Flight time | 2h 40m |
| Altitude | 36000 |
| Route | UBNEN1A UBNEN R203 SAPAM L645 RUPTI/N0453F380 L645 BIDAN OLSAR1A |
| Aircraft | B737/M-SDE2E3FGHIRWXY/LB1 |
Departure
| Time | 2026-05-05 22:20 |
|---|---|
| Airport | Phuket International Airport (VTSP) |
Arrival
| Time | 2026-05-06 01:00 |
|---|---|
| Airport | Bandaranaike International Colombo Airport (VCBI) |
| Time | Latitude | Longitude | Altitude | Speed | Heading |
|---|---|---|---|---|---|
| 2026-05-05 22:00 | 8.10981 | 98.30635 | 35 ft | 0 kts | 173° |
| 2026-05-05 22:17 | 8.10993 | 98.30635 | 34 ft | 7 kts | 206° |
| 2026-05-05 22:17 | 8.11004 | 98.30644 | 35 ft | 0 kts | 256° |
| 2026-05-05 22:17 | 8.11004 | 98.30642 | 35 ft | 1 kts | 264° |
| 2026-05-05 22:18 | 8.11003 | 98.30624 | 34 ft | 4 kts | 273° |
| 2026-05-05 22:18 | 8.11018 | 98.30584 | 32 ft | 8 kts | 298° |
| 2026-05-05 22:18 | 8.11039 | 98.30512 | 32 ft | 13 kts | 275° |
| 2026-05-05 22:18 | 8.11052 | 98.30402 | 29 ft | 18 kts | 288° |
| 2026-05-05 22:19 | 8.11156 | 98.30355 | 29 ft | 18 kts | 21° |
| 2026-05-05 22:19 | 8.11210 | 98.30534 | 31 ft | 55 kts | 83° |
| 2026-05-05 22:19 | 8.11272 | 98.31155 | 46 ft | 121 kts | 84° |
| 2026-05-05 22:19 | 8.11368 | 98.32188 | 93 ft | 171 kts | 84° |
| 2026-05-05 22:20 | 8.11465 | 98.33421 | 715 ft | 177 kts | 87° |
| 2026-05-05 22:20 | 8.11542 | 98.34692 | 1415 ft | 182 kts | 83° |
| 2026-05-05 22:20 | 8.11681 | 98.35934 | 2249 ft | 184 kts | 83° |
| 2026-05-05 22:20 | 8.11824 | 98.37308 | 2575 ft | 213 kts | 83° |
| 2026-05-05 22:21 | 8.11984 | 98.38883 | 2911 ft | 235 kts | 84° |
| 2026-05-05 22:21 | 8.12145 | 98.40542 | 3584 ft | 240 kts | 84° |
| 2026-05-05 22:21 | 8.12306 | 98.42240 | 4287 ft | 244 kts | 84° |
| 2026-05-05 22:21 | 8.12469 | 98.43949 | 5053 ft | 245 kts | 84° |
| 2026-05-05 22:22 | 8.12629 | 98.45670 | 5773 ft | 248 kts | 84° |
| 2026-05-05 22:22 | 8.12795 | 98.47460 | 6273 ft | 266 kts | 84° |
| 2026-05-05 22:22 | 8.12973 | 98.49350 | 6976 ft | 275 kts | 84° |
| 2026-05-05 22:22 | 8.13152 | 98.51274 | 7845 ft | 277 kts | 84° |
| 2026-05-05 22:23 | 8.13330 | 98.53225 | 8652 ft | 281 kts | 85° |
| 2026-05-05 22:23 | 8.13508 | 98.55176 | 9453 ft | 284 kts | 86° |
| 2026-05-05 22:23 | 8.13286 | 98.57182 | 10238 ft | 288 kts | 108° |
| 2026-05-05 22:23 | 8.12378 | 98.59009 | 10660 ft | 306 kts | 126° |
| 2026-05-05 22:24 | 8.10796 | 98.60497 | 11236 ft | 318 kts | 146° |
| 2026-05-05 22:24 | 8.08736 | 98.61343 | 11998 ft | 325 kts | 168° |
| 2026-05-05 22:24 | 8.06478 | 98.61525 | 12846 ft | 327 kts | 175° |
| 2026-05-05 22:24 | 8.04184 | 98.61579 | 13580 ft | 332 kts | 176° |
| 2026-05-05 22:25 | 8.01855 | 98.61631 | 14273 ft | 337 kts | 176° |
| 2026-05-05 22:25 | 7.99497 | 98.61702 | 14991 ft | 340 kts | 176° |
| 2026-05-05 22:25 | 7.97113 | 98.61699 | 15657 ft | 347 kts | 186° |
| 2026-05-05 22:25 | 7.94800 | 98.60939 | 16377 ft | 355 kts | 208° |
| 2026-05-05 22:26 | 7.92906 | 98.59362 | 17006 ft | 366 kts | 229° |
| 2026-05-05 22:26 | 7.91683 | 98.57043 | 17134 ft | 389 kts | 254° |
| 2026-05-05 22:26 | 7.91305 | 98.54294 | 17451 ft | 402 kts | 264° |
| 2026-05-05 22:26 | 7.91102 | 98.51464 | 17954 ft | 407 kts | 265° |
| 2026-05-05 22:27 | 7.90926 | 98.48604 | 18545 ft | 409 kts | 265° |
| 2026-05-05 22:27 | 7.90743 | 98.45718 | 19130 ft | 412 kts | 265° |
| 2026-05-05 22:27 | 7.90544 | 98.42830 | 19676 ft | 414 kts | 265° |
| 2026-05-05 22:27 | 7.90330 | 98.39919 | 20208 ft | 417 kts | 265° |
| 2026-05-05 22:28 | 7.90106 | 98.36999 | 20705 ft | 419 kts | 265° |
| 2026-05-05 22:28 | 7.89876 | 98.34061 | 21170 ft | 422 kts | 265° |
| 2026-05-05 22:28 | 7.89640 | 98.31093 | 21634 ft | 425 kts | 265° |
| 2026-05-05 22:28 | 7.89403 | 98.28111 | 22082 ft | 427 kts | 265° |
| 2026-05-05 22:29 | 7.89168 | 98.25155 | 22501 ft | 429 kts | 265° |
| 2026-05-05 22:29 | 7.88929 | 98.22145 | 22897 ft | 432 kts | 265° |
| 2026-05-05 22:29 | 7.88689 | 98.19120 | 23298 ft | 434 kts | 265° |
| 2026-05-05 22:29 | 7.88447 | 98.16075 | 23663 ft | 436 kts | 265° |
| 2026-05-05 22:30 | 7.88204 | 98.13020 | 24036 ft | 438 kts | 265° |
| 2026-05-05 22:30 | 7.87997 | 98.09939 | 24375 ft | 441 kts | 270° |
| 2026-05-05 22:30 | 7.88481 | 98.06885 | 24640 ft | 445 kts | 288° |
| 2026-05-05 22:30 | 7.89832 | 98.04080 | 24959 ft | 447 kts | 305° |
| 2026-05-05 22:31 | 7.91738 | 98.01600 | 25306 ft | 448 kts | 309° |
| 2026-05-05 22:31 | 7.93737 | 97.99167 | 25559 ft | 452 kts | 310° |
| 2026-05-05 22:31 | 7.95762 | 97.96723 | 25837 ft | 454 kts | 310° |
| 2026-05-05 22:31 | 7.97773 | 97.94264 | 26133 ft | 456 kts | 309° |
| 2026-05-05 22:32 | 7.99776 | 97.91778 | 26430 ft | 457 kts | 309° |
| 2026-05-05 22:32 | 8.01776 | 97.89269 | 26688 ft | 460 kts | 309° |
| 2026-05-05 22:32 | 8.03779 | 97.86746 | 26950 ft | 462 kts | 309° |
| 2026-05-05 22:32 | 8.05792 | 97.84212 | 27211 ft | 464 kts | 309° |
| 2026-05-05 22:33 | 8.07610 | 97.81526 | 27415 ft | 467 kts | 296° |
| 2026-05-05 22:33 | 8.08643 | 97.78422 | 27680 ft | 468 kts | 280° |
| 2026-05-05 22:33 | 8.08816 | 97.75146 | 27938 ft | 469 kts | 268° |
| 2026-05-05 22:33 | 8.08631 | 97.71848 | 28179 ft | 471 kts | 266° |
| 2026-05-05 22:34 | 8.08387 | 97.68544 | 28405 ft | 473 kts | 265° |
| 2026-05-05 22:34 | 8.08152 | 97.65222 | 28585 ft | 476 kts | 266° |
| 2026-05-05 22:34 | 8.07950 | 97.61883 | 28800 ft | 478 kts | 267° |
| 2026-05-05 22:34 | 8.07774 | 97.58529 | 29019 ft | 479 kts | 267° |
| 2026-05-05 22:35 | 8.07604 | 97.55166 | 29234 ft | 480 kts | 267° |
| 2026-05-05 22:35 | 8.07432 | 97.51795 | 29443 ft | 482 kts | 267° |
| 2026-05-05 22:35 | 8.07254 | 97.48456 | 29647 ft | 483 kts | 267° |
| 2026-05-05 22:35 | 8.07068 | 97.45023 | 29810 ft | 485 kts | 267° |
| 2026-05-05 22:36 | 8.06885 | 97.41665 | 29993 ft | 487 kts | 267° |
| 2026-05-05 22:36 | 8.06700 | 97.38248 | 30178 ft | 488 kts | 267° |
| 2026-05-05 22:36 | 8.06516 | 97.34828 | 30350 ft | 489 kts | 267° |
| 2026-05-05 22:36 | 8.06330 | 97.31393 | 30532 ft | 490 kts | 267° |
| 2026-05-05 22:37 | 8.06144 | 97.27958 | 30759 ft | 490 kts | 267° |
| 2026-05-05 22:37 | 8.05957 | 97.24519 | 31054 ft | 489 kts | 267° |
| 2026-05-05 22:37 | 8.05773 | 97.21105 | 31395 ft | 486 kts | 268° |
| 2026-05-05 22:37 | 8.05632 | 97.17701 | 31690 ft | 485 kts | 268° |
| 2026-05-05 22:38 | 8.05531 | 97.14295 | 31947 ft | 485 kts | 269° |
| 2026-05-05 22:38 | 8.05446 | 97.10891 | 32216 ft | 485 kts | 269° |
| 2026-05-05 22:38 | 8.05392 | 97.08647 | 32428 ft | 483 kts | 269° |
| 2026-05-05 22:38 | 8.05307 | 97.05262 | 32758 ft | 481 kts | 269° |
| 2026-05-05 22:39 | 8.05218 | 97.01884 | 33046 ft | 481 kts | 269° |
| 2026-05-05 22:39 | 8.05125 | 96.98518 | 33314 ft | 480 kts | 269° |
| 2026-05-05 22:39 | 8.05028 | 96.95149 | 33635 ft | 479 kts | 269° |
| 2026-05-05 22:39 | 8.04929 | 96.91791 | 33978 ft | 477 kts | 269° |
| 2026-05-05 22:40 | 8.04830 | 96.88468 | 34282 ft | 476 kts | 269° |
| 2026-05-05 22:40 | 8.04729 | 96.85122 | 34570 ft | 476 kts | 269° |
| 2026-05-05 22:40 | 8.04629 | 96.81786 | 34913 ft | 474 kts | 269° |
| 2026-05-05 22:40 | 8.04529 | 96.78472 | 35284 ft | 472 kts | 269° |
| 2026-05-05 22:41 | 8.04431 | 96.75173 | 35571 ft | 471 kts | 269° |
| 2026-05-05 22:41 | 8.04331 | 96.71867 | 35821 ft | 471 kts | 269° |
| 2026-05-05 22:41 | 8.04232 | 96.68568 | 36084 ft | 470 kts | 269° |
| 2026-05-05 22:41 | 8.04134 | 96.65316 | 36338 ft | 469 kts | 269° |
| 2026-05-05 22:42 | 8.04034 | 96.62022 | 36564 ft | 469 kts | 269° |
| 2026-05-05 22:42 | 8.03934 | 96.58728 | 36811 ft | 468 kts | 269° |
| 2026-05-05 22:42 | 8.03835 | 96.55460 | 37215 ft | 463 kts | 269° |
| 2026-05-05 22:42 | 8.03735 | 96.52239 | 37635 ft | 457 kts | 269° |
| 2026-05-05 22:43 | 8.03637 | 96.49037 | 37846 ft | 457 kts | 269° |
| 2026-05-05 22:43 | 8.03440 | 96.42583 | 37841 ft | 461 kts | 269° |
| 2026-05-05 22:44 | 8.03240 | 96.36129 | 37836 ft | 458 kts | 269° |
| 2026-05-05 22:44 | 8.03041 | 96.29725 | 37839 ft | 455 kts | 269° |
| 2026-05-05 22:45 | 8.02842 | 96.23361 | 37843 ft | 453 kts | 269° |
| 2026-05-05 22:45 | 8.02643 | 96.17011 | 37845 ft | 452 kts | 269° |
| 2026-05-05 22:46 | 8.02446 | 96.10695 | 37845 ft | 453 kts | 269° |
| 2026-05-05 22:46 | 8.02245 | 96.04332 | 37846 ft | 455 kts | 269° |
| 2026-05-05 22:47 | 8.02040 | 95.97935 | 37847 ft | 457 kts | 269° |
| 2026-05-05 22:47 | 8.01834 | 95.91510 | 37848 ft | 459 kts | 269° |
| 2026-05-05 22:48 | 8.01627 | 95.85096 | 37841 ft | 460 kts | 269° |
| 2026-05-05 22:48 | 8.01420 | 95.78649 | 37842 ft | 459 kts | 269° |
| 2026-05-05 22:49 | 8.01214 | 95.72302 | 37842 ft | 458 kts | 269° |
| 2026-05-05 22:49 | 8.01006 | 95.65939 | 37843 ft | 458 kts | 269° |
| 2026-05-05 22:50 | 8.00798 | 95.59563 | 37841 ft | 457 kts | 269° |
| 2026-05-05 22:50 | 8.00587 | 95.53148 | 37846 ft | 458 kts | 269° |
| 2026-05-05 22:51 | 8.00392 | 95.46721 | 37841 ft | 458 kts | 270° |
| 2026-05-05 22:51 | 8.00245 | 95.40291 | 37843 ft | 458 kts | 270° |
| 2026-05-05 22:52 | 8.00102 | 95.33867 | 37843 ft | 458 kts | 270° |
| 2026-05-05 22:52 | 7.99951 | 95.27429 | 37840 ft | 459 kts | 270° |
| 2026-05-05 22:53 | 7.99796 | 95.20998 | 37841 ft | 460 kts | 270° |
| 2026-05-05 22:53 | 7.99639 | 95.14574 | 37844 ft | 460 kts | 270° |
| 2026-05-05 22:54 | 7.99482 | 95.08116 | 37844 ft | 461 kts | 270° |
| 2026-05-05 22:54 | 7.99322 | 95.01607 | 37844 ft | 463 kts | 269° |
| 2026-05-05 22:55 | 7.99162 | 94.95149 | 37843 ft | 464 kts | 269° |
| 2026-05-05 22:55 | 7.99001 | 94.88712 | 37844 ft | 465 kts | 269° |
| 2026-05-05 22:56 | 7.98837 | 94.82187 | 37842 ft | 466 kts | 269° |
| 2026-05-05 22:56 | 7.98672 | 94.75637 | 37843 ft | 467 kts | 269° |
| 2026-05-05 22:57 | 7.98506 | 94.69112 | 37841 ft | 467 kts | 269° |
| 2026-05-05 22:57 | 7.98339 | 94.62559 | 37844 ft | 468 kts | 269° |
| 2026-05-05 22:58 | 7.98171 | 94.55989 | 37843 ft | 468 kts | 269° |
| 2026-05-05 22:58 | 7.98001 | 94.49438 | 37841 ft | 468 kts | 269° |
| 2026-05-05 22:59 | 7.97831 | 94.42876 | 37842 ft | 468 kts | 269° |
| 2026-05-05 22:59 | 7.97563 | 94.36336 | 37839 ft | 468 kts | 268° |
| 2026-05-05 23:00 | 7.96969 | 94.26460 | 37842 ft | 468 kts | 267° |
| 2026-05-05 23:00 | 7.96587 | 94.19922 | 37843 ft | 468 kts | 267° |
| 2026-05-05 23:01 | 7.96218 | 94.13369 | 37844 ft | 468 kts | 267° |
| 2026-05-05 23:01 | 7.95853 | 94.06846 | 37844 ft | 468 kts | 267° |
| 2026-05-05 23:02 | 7.95483 | 94.00274 | 37841 ft | 467 kts | 267° |
| 2026-05-05 23:02 | 7.95115 | 93.93753 | 37844 ft | 467 kts | 267° |
| 2026-05-05 23:03 | 7.94745 | 93.87220 | 37841 ft | 467 kts | 267° |
| 2026-05-05 23:03 | 7.94373 | 93.80680 | 37840 ft | 467 kts | 267° |
| 2026-05-05 23:04 | 7.94002 | 93.74161 | 37844 ft | 467 kts | 267° |
| 2026-05-05 23:04 | 7.93627 | 93.67599 | 37846 ft | 467 kts | 267° |
| 2026-05-05 23:05 | 7.93252 | 93.61055 | 37841 ft | 468 kts | 267° |
| 2026-05-05 23:05 | 7.92875 | 93.54482 | 37846 ft | 467 kts | 267° |
| 2026-05-05 23:06 | 7.92502 | 93.47963 | 37840 ft | 468 kts | 268° |
| 2026-05-05 23:06 | 7.92143 | 93.41428 | 37844 ft | 467 kts | 268° |
| 2026-05-05 23:07 | 7.91787 | 93.34855 | 37842 ft | 468 kts | 268° |
| 2026-05-05 23:07 | 7.91429 | 93.28302 | 37842 ft | 467 kts | 268° |
| 2026-05-05 23:08 | 7.91071 | 93.21793 | 37844 ft | 467 kts | 268° |
| 2026-05-05 23:08 | 7.90711 | 93.15272 | 37842 ft | 467 kts | 267° |
| 2026-05-05 23:09 | 7.90347 | 93.08700 | 37849 ft | 467 kts | 267° |
| 2026-05-05 23:09 | 7.89984 | 93.02144 | 37853 ft | 467 kts | 267° |
| 2026-05-05 23:10 | 7.89622 | 92.95645 | 37850 ft | 467 kts | 267° |
| 2026-05-05 23:10 | 7.89257 | 92.89091 | 37852 ft | 467 kts | 267° |
| 2026-05-05 23:11 | 7.88891 | 92.82549 | 37851 ft | 467 kts | 267° |
| 2026-05-05 23:11 | 7.88526 | 92.76028 | 37855 ft | 467 kts | 267° |
| 2026-05-05 23:12 | 7.88158 | 92.69492 | 37852 ft | 467 kts | 267° |
| 2026-05-05 23:12 | 7.87789 | 92.62955 | 37851 ft | 467 kts | 267° |
| 2026-05-05 23:13 | 7.87418 | 92.56402 | 37852 ft | 467 kts | 267° |
| 2026-05-05 23:13 | 7.87047 | 92.49866 | 37853 ft | 467 kts | 267° |
| 2026-05-05 23:14 | 7.86674 | 92.43321 | 37852 ft | 467 kts | 267° |
| 2026-05-05 23:14 | 7.86303 | 92.36804 | 37852 ft | 466 kts | 267° |
| 2026-05-05 23:15 | 7.85931 | 92.30305 | 37852 ft | 466 kts | 267° |
| 2026-05-05 23:15 | 7.85556 | 92.23769 | 37853 ft | 466 kts | 267° |
| 2026-05-05 23:16 | 7.85180 | 92.17224 | 37852 ft | 466 kts | 267° |
| 2026-05-05 23:16 | 7.84803 | 92.10684 | 37852 ft | 466 kts | 267° |
| 2026-05-05 23:17 | 7.84428 | 92.04200 | 37851 ft | 466 kts | 267° |
| 2026-05-05 23:17 | 7.84048 | 91.97645 | 37853 ft | 466 kts | 267° |
| 2026-05-05 23:18 | 7.83670 | 91.91144 | 37853 ft | 466 kts | 267° |
| 2026-05-05 23:18 | 7.83289 | 91.84595 | 37852 ft | 467 kts | 267° |
| 2026-05-05 23:19 | 7.82909 | 91.78092 | 37852 ft | 466 kts | 267° |
| 2026-05-05 23:19 | 7.82527 | 91.71563 | 37853 ft | 467 kts | 267° |
| 2026-05-05 23:20 | 7.82148 | 91.65012 | 37852 ft | 467 kts | 268° |
| 2026-05-05 23:20 | 7.81805 | 91.58513 | 37848 ft | 466 kts | 268° |
| 2026-05-05 23:21 | 7.81466 | 91.51993 | 37852 ft | 466 kts | 268° |
| 2026-05-05 23:21 | 7.81122 | 91.45428 | 37853 ft | 466 kts | 268° |
| 2026-05-05 23:22 | 7.80777 | 91.38936 | 37853 ft | 466 kts | 268° |
| 2026-05-05 23:22 | 7.80430 | 91.32417 | 37852 ft | 465 kts | 267° |
| 2026-05-05 23:23 | 7.80082 | 91.25925 | 37851 ft | 465 kts | 267° |
| 2026-05-05 23:23 | 7.79731 | 91.19381 | 37852 ft | 465 kts | 267° |
| 2026-05-05 23:24 | 7.79381 | 91.12872 | 37856 ft | 465 kts | 267° |
| 2026-05-05 23:24 | 7.79031 | 91.06393 | 37853 ft | 465 kts | 267° |
| 2026-05-05 23:25 | 7.78677 | 90.99841 | 37849 ft | 465 kts | 267° |
| 2026-05-05 23:25 | 7.78326 | 90.93377 | 37853 ft | 464 kts | 267° |
| 2026-05-05 23:26 | 7.77972 | 90.86875 | 37852 ft | 464 kts | 267° |
| 2026-05-05 23:26 | 7.77617 | 90.80374 | 37852 ft | 464 kts | 267° |
| 2026-05-05 23:27 | 7.77261 | 90.73861 | 37850 ft | 464 kts | 267° |
| 2026-05-05 23:27 | 7.76904 | 90.67365 | 37855 ft | 464 kts | 267° |
| 2026-05-05 23:28 | 7.76548 | 90.60874 | 37851 ft | 463 kts | 267° |
| 2026-05-05 23:28 | 7.76192 | 90.54434 | 37851 ft | 463 kts | 267° |
| 2026-05-05 23:29 | 7.75833 | 90.47934 | 37849 ft | 462 kts | 267° |
| 2026-05-05 23:29 | 7.75473 | 90.41462 | 37853 ft | 462 kts | 267° |
| 2026-05-05 23:30 | 7.75175 | 90.36089 | 37851 ft | 461 kts | 267° |
| 2026-05-05 23:30 | 7.74754 | 90.28540 | 37855 ft | 461 kts | 267° |
| 2026-05-05 23:31 | 7.74396 | 90.22119 | 37850 ft | 461 kts | 267° |
| 2026-05-05 23:31 | 7.74034 | 90.15672 | 37852 ft | 461 kts | 267° |
| 2026-05-05 23:32 | 7.73671 | 90.09221 | 37853 ft | 461 kts | 267° |
| 2026-05-05 23:32 | 7.73369 | 90.03857 | 37851 ft | 460 kts | 267° |
| 2026-05-05 23:33 | 7.73005 | 89.97413 | 37853 ft | 460 kts | 267° |
| 2026-05-05 23:33 | 7.72639 | 89.90961 | 37852 ft | 460 kts | 267° |
| 2026-05-05 23:34 | 7.72271 | 89.84508 | 37851 ft | 460 kts | 267° |
| 2026-05-05 23:34 | 7.71904 | 89.78067 | 37851 ft | 460 kts | 267° |
| 2026-05-05 23:35 | 7.71536 | 89.71624 | 37851 ft | 460 kts | 267° |
| 2026-05-05 23:35 | 7.71170 | 89.65215 | 37853 ft | 460 kts | 267° |
| 2026-05-05 23:36 | 7.70800 | 89.58763 | 37852 ft | 461 kts | 267° |
| 2026-05-05 23:36 | 7.70429 | 89.52315 | 37853 ft | 461 kts | 267° |
| 2026-05-05 23:37 | 7.70056 | 89.45860 | 37850 ft | 461 kts | 267° |
| 2026-05-05 23:37 | 7.69682 | 89.39391 | 37853 ft | 462 kts | 267° |
| 2026-05-05 23:38 | 7.69306 | 89.32912 | 37845 ft | 463 kts | 267° |
| 2026-05-05 23:38 | 7.69019 | 89.26432 | 37842 ft | 463 kts | 268° |
| 2026-05-05 23:39 | 7.68800 | 89.19951 | 37840 ft | 463 kts | 268° |
| 2026-05-05 23:39 | 7.68575 | 89.13468 | 37842 ft | 463 kts | 268° |
| 2026-05-05 23:40 | 7.68337 | 89.07020 | 37841 ft | 463 kts | 268° |
| 2026-05-05 23:40 | 7.68093 | 89.00533 | 37840 ft | 463 kts | 268° |
| 2026-05-05 23:41 | 7.67845 | 88.94048 | 37845 ft | 463 kts | 268° |
| 2026-05-05 23:41 | 7.67598 | 88.87556 | 37844 ft | 464 kts | 268° |
| 2026-05-05 23:42 | 7.67350 | 88.81055 | 37841 ft | 464 kts | 268° |
| 2026-05-05 23:42 | 7.67100 | 88.74545 | 37842 ft | 464 kts | 268° |
| 2026-05-05 23:43 | 7.66849 | 88.68039 | 37843 ft | 464 kts | 268° |
| 2026-05-05 23:43 | 7.66600 | 88.61572 | 37841 ft | 465 kts | 268° |
| 2026-05-05 23:44 | 7.66348 | 88.55063 | 37843 ft | 464 kts | 268° |
| 2026-05-05 23:44 | 7.66094 | 88.48556 | 37843 ft | 464 kts | 268° |
| 2026-05-05 23:45 | 7.65839 | 88.42042 | 37841 ft | 464 kts | 268° |
| 2026-05-05 23:45 | 7.65584 | 88.35538 | 37845 ft | 464 kts | 268° |
| 2026-05-05 23:46 | 7.65329 | 88.29080 | 37841 ft | 464 kts | 268° |
| 2026-05-05 23:46 | 7.65072 | 88.22584 | 37842 ft | 464 kts | 268° |
| 2026-05-05 23:47 | 7.64814 | 88.16088 | 37843 ft | 464 kts | 268° |
| 2026-05-05 23:47 | 7.64556 | 88.09596 | 37841 ft | 464 kts | 268° |
| 2026-05-05 23:48 | 7.64296 | 88.03093 | 37843 ft | 464 kts | 268° |
| 2026-05-05 23:48 | 7.63943 | 87.96598 | 37842 ft | 464 kts | 266° |
| 2026-05-05 23:49 | 7.63528 | 87.90104 | 37841 ft | 464 kts | 266° |
| 2026-05-05 23:49 | 7.63118 | 87.83622 | 37843 ft | 463 kts | 266° |
| 2026-05-05 23:50 | 7.62722 | 87.77178 | 37841 ft | 463 kts | 266° |
| 2026-05-05 23:50 | 7.62326 | 87.70684 | 37841 ft | 464 kts | 266° |
| 2026-05-05 23:51 | 7.61930 | 87.64193 | 37842 ft | 463 kts | 266° |
| 2026-05-05 23:51 | 7.61533 | 87.57704 | 37845 ft | 464 kts | 266° |
| 2026-05-05 23:52 | 7.61135 | 87.51213 | 37843 ft | 464 kts | 266° |
| 2026-05-05 23:52 | 7.60739 | 87.44763 | 37840 ft | 464 kts | 266° |
| 2026-05-05 23:53 | 7.60339 | 87.38264 | 37844 ft | 464 kts | 266° |
| 2026-05-05 23:53 | 7.59936 | 87.31773 | 37841 ft | 464 kts | 266° |
| 2026-05-05 23:54 | 7.59534 | 87.25283 | 37844 ft | 464 kts | 266° |
| 2026-05-05 23:54 | 7.59130 | 87.18798 | 37844 ft | 464 kts | 266° |
| 2026-05-05 23:55 | 7.58726 | 87.12309 | 37843 ft | 464 kts | 266° |
| 2026-05-05 23:55 | 7.58323 | 87.05827 | 37841 ft | 464 kts | 266° |
| 2026-05-05 23:56 | 7.57916 | 86.99333 | 37838 ft | 464 kts | 266° |
| 2026-05-05 23:56 | 7.57509 | 86.92845 | 37832 ft | 464 kts | 266° |
| 2026-05-05 23:57 | 7.57101 | 86.86357 | 37833 ft | 464 kts | 266° |
| 2026-05-05 23:57 | 7.56692 | 86.79869 | 37834 ft | 464 kts | 266° |
| 2026-05-05 23:58 | 7.56283 | 86.73380 | 37833 ft | 464 kts | 266° |
| 2026-05-05 23:58 | 7.55873 | 86.66893 | 37833 ft | 464 kts | 266° |
| 2026-05-05 23:59 | 7.55463 | 86.60440 | 37831 ft | 464 kts | 266° |
| 2026-05-05 23:59 | 7.55033 | 86.53947 | 37830 ft | 464 kts | 265° |
| 2026-05-06 00:00 | 7.54478 | 86.47474 | 37835 ft | 464 kts | 264° |
| 2026-05-06 00:00 | 7.53893 | 86.41019 | 37831 ft | 463 kts | 264° |
| 2026-05-06 00:01 | 7.53319 | 86.34552 | 37834 ft | 463 kts | 264° |
| 2026-05-06 00:01 | 7.52756 | 86.28085 | 37832 ft | 463 kts | 264° |
| 2026-05-06 00:02 | 7.52195 | 86.21621 | 37835 ft | 463 kts | 264° |
| 2026-05-06 00:02 | 7.51633 | 86.15158 | 37833 ft | 462 kts | 264° |
| 2026-05-06 00:03 | 7.51070 | 86.08711 | 37834 ft | 462 kts | 264° |
| 2026-05-06 00:03 | 7.50506 | 86.02258 | 37835 ft | 462 kts | 264° |
| 2026-05-06 00:04 | 7.49942 | 85.95815 | 37833 ft | 462 kts | 264° |
| 2026-05-06 00:04 | 7.49377 | 85.89363 | 37833 ft | 462 kts | 264° |
| 2026-05-06 00:05 | 7.48530 | 85.79722 | 37834 ft | 462 kts | 264° |
| 2026-05-06 00:06 | 7.47961 | 85.73268 | 37833 ft | 463 kts | 264° |
| 2026-05-06 00:06 | 7.47391 | 85.66800 | 37833 ft | 463 kts | 264° |
| 2026-05-06 00:07 | 7.46821 | 85.60342 | 37833 ft | 463 kts | 264° |
| 2026-05-06 00:07 | 7.46249 | 85.53880 | 37833 ft | 463 kts | 264° |
| 2026-05-06 00:08 | 7.45676 | 85.47413 | 37833 ft | 463 kts | 264° |
| 2026-05-06 00:08 | 7.45102 | 85.40946 | 37832 ft | 463 kts | 264° |
| 2026-05-06 00:09 | 7.44531 | 85.34517 | 37834 ft | 464 kts | 264° |
| 2026-05-06 00:09 | 7.43993 | 85.28035 | 37829 ft | 464 kts | 265° |
| 2026-05-06 00:10 | 7.43689 | 85.21529 | 37836 ft | 465 kts | 267° |
| 2026-05-06 00:10 | 7.43437 | 85.15003 | 37835 ft | 466 kts | 266° |
| 2026-05-06 00:11 | 7.43160 | 85.08473 | 37834 ft | 467 kts | 266° |
| 2026-05-06 00:11 | 7.42859 | 85.01934 | 37837 ft | 467 kts | 266° |
| 2026-05-06 00:12 | 7.42553 | 84.95426 | 37833 ft | 468 kts | 266° |
| 2026-05-06 00:12 | 7.42244 | 84.88868 | 37831 ft | 468 kts | 266° |
| 2026-05-06 00:13 | 7.41934 | 84.82321 | 37832 ft | 467 kts | 266° |
| 2026-05-06 00:13 | 7.41624 | 84.75776 | 37833 ft | 467 kts | 266° |
| 2026-05-06 00:14 | 7.41314 | 84.69232 | 37833 ft | 467 kts | 266° |
| 2026-05-06 00:14 | 7.41004 | 84.62723 | 37833 ft | 468 kts | 266° |
| 2026-05-06 00:15 | 7.40691 | 84.56179 | 37831 ft | 467 kts | 266° |
| 2026-05-06 00:15 | 7.40378 | 84.49648 | 37835 ft | 467 kts | 266° |
| 2026-05-06 00:16 | 7.40065 | 84.43126 | 37832 ft | 466 kts | 266° |
| 2026-05-06 00:16 | 7.39751 | 84.36604 | 37834 ft | 466 kts | 266° |
| 2026-05-06 00:17 | 7.39436 | 84.30090 | 37832 ft | 465 kts | 266° |
| 2026-05-06 00:17 | 7.39120 | 84.23578 | 37833 ft | 465 kts | 266° |
| 2026-05-06 00:18 | 7.38803 | 84.17060 | 37832 ft | 465 kts | 266° |
| 2026-05-06 00:18 | 7.38485 | 84.10552 | 37833 ft | 465 kts | 266° |
| 2026-05-06 00:19 | 7.38168 | 84.04082 | 37835 ft | 465 kts | 266° |
| 2026-05-06 00:19 | 7.37848 | 83.97560 | 37833 ft | 465 kts | 266° |
| 2026-05-06 00:20 | 7.37528 | 83.91044 | 37837 ft | 466 kts | 266° |
| 2026-05-06 00:20 | 7.37260 | 83.85631 | 37832 ft | 466 kts | 266° |
| 2026-05-06 00:21 | 7.36937 | 83.79104 | 37833 ft | 466 kts | 266° |
| 2026-05-06 00:21 | 7.36614 | 83.72589 | 37831 ft | 466 kts | 266° |
| 2026-05-06 00:22 | 7.36289 | 83.66064 | 37823 ft | 466 kts | 266° |
| 2026-05-06 00:22 | 7.35963 | 83.59538 | 37826 ft | 466 kts | 266° |
| 2026-05-06 00:23 | 7.35637 | 83.53016 | 37823 ft | 466 kts | 266° |
| 2026-05-06 00:23 | 7.35311 | 83.46542 | 37831 ft | 466 kts | 266° |
| 2026-05-06 00:24 | 7.34983 | 83.40033 | 37833 ft | 465 kts | 266° |
| 2026-05-06 00:24 | 7.34653 | 83.33530 | 37823 ft | 465 kts | 266° |
| 2026-05-06 00:25 | 7.34324 | 83.27027 | 37824 ft | 465 kts | 266° |
| 2026-05-06 00:25 | 7.33995 | 83.20534 | 37826 ft | 465 kts | 266° |
| 2026-05-06 00:26 | 7.33665 | 83.14028 | 37824 ft | 465 kts | 266° |
| 2026-05-06 00:26 | 7.33332 | 83.07512 | 37822 ft | 465 kts | 266° |
| 2026-05-06 00:27 | 7.32998 | 83.00998 | 37823 ft | 465 kts | 266° |
| 2026-05-06 00:27 | 7.32664 | 82.94488 | 37826 ft | 465 kts | 266° |
| 2026-05-06 00:28 | 7.32328 | 82.87979 | 37824 ft | 465 kts | 266° |
| 2026-05-06 00:28 | 7.31991 | 82.81464 | 37824 ft | 465 kts | 266° |
| 2026-05-06 00:29 | 7.31653 | 82.74952 | 37825 ft | 465 kts | 266° |
| 2026-05-06 00:29 | 7.31315 | 82.68441 | 37824 ft | 466 kts | 266° |
| 2026-05-06 00:30 | 7.30979 | 82.61972 | 37822 ft | 466 kts | 266° |
| 2026-05-06 00:30 | 7.30639 | 82.55461 | 37823 ft | 465 kts | 266° |
| 2026-05-06 00:31 | 7.30298 | 82.48959 | 37822 ft | 465 kts | 266° |
| 2026-05-06 00:31 | 7.29957 | 82.42461 | 37824 ft | 464 kts | 266° |
| 2026-05-06 00:32 | 7.29615 | 82.35976 | 37825 ft | 464 kts | 266° |
| 2026-05-06 00:32 | 7.29272 | 82.29485 | 37824 ft | 464 kts | 266° |
| 2026-05-06 00:33 | 7.28929 | 82.23001 | 37823 ft | 464 kts | 266° |
| 2026-05-06 00:33 | 7.28584 | 82.16512 | 37824 ft | 464 kts | 266° |
| 2026-05-06 00:34 | 7.28238 | 82.10018 | 37824 ft | 464 kts | 266° |
| 2026-05-06 00:34 | 7.27894 | 82.03557 | 37823 ft | 464 kts | 266° |
| 2026-05-06 00:35 | 7.27546 | 81.97058 | 37825 ft | 464 kts | 266° |
| 2026-05-06 00:35 | 7.27198 | 81.90597 | 37823 ft | 464 kts | 266° |
| 2026-05-06 00:35 | 7.27021 | 81.87326 | 37642 ft | 467 kts | 266° |
| 2026-05-06 00:36 | 7.26843 | 81.84030 | 37046 ft | 471 kts | 266° |
| 2026-05-06 00:36 | 7.26667 | 81.80766 | 36417 ft | 469 kts | 266° |
| 2026-05-06 00:36 | 7.26491 | 81.77511 | 35742 ft | 469 kts | 266° |
| 2026-05-06 00:36 | 7.26311 | 81.74201 | 34965 ft | 470 kts | 266° |
| 2026-05-06 00:37 | 7.26133 | 81.70910 | 34179 ft | 471 kts | 266° |
| 2026-05-06 00:37 | 7.25953 | 81.67604 | 33363 ft | 473 kts | 266° |
| 2026-05-06 00:37 | 7.25774 | 81.64305 | 32773 ft | 469 kts | 266° |
| 2026-05-06 00:37 | 7.25597 | 81.61042 | 32183 ft | 465 kts | 266° |
| 2026-05-06 00:38 | 7.25420 | 81.57802 | 31605 ft | 461 kts | 266° |
| 2026-05-06 00:38 | 7.24995 | 81.54666 | 31048 ft | 455 kts | 253° |
| 2026-05-06 00:38 | 7.24084 | 81.51645 | 30586 ft | 448 kts | 251° |
| 2026-05-06 00:38 | 7.23139 | 81.48663 | 30019 ft | 445 kts | 251° |
| 2026-05-06 00:39 | 7.22209 | 81.45708 | 29464 ft | 442 kts | 251° |
| 2026-05-06 00:39 | 7.21293 | 81.42761 | 28891 ft | 438 kts | 251° |
| 2026-05-06 00:39 | 7.20395 | 81.39843 | 28306 ft | 434 kts | 252° |
| 2026-05-06 00:39 | 7.19511 | 81.36936 | 27735 ft | 431 kts | 252° |
| 2026-05-06 00:40 | 7.18641 | 81.34050 | 27165 ft | 427 kts | 252° |
| 2026-05-06 00:40 | 7.17783 | 81.31201 | 26592 ft | 424 kts | 252° |
| 2026-05-06 00:40 | 7.16942 | 81.28409 | 26030 ft | 419 kts | 252° |
| 2026-05-06 00:40 | 7.16098 | 81.25612 | 25466 ft | 416 kts | 252° |
| 2026-05-06 00:41 | 7.15282 | 81.22828 | 24904 ft | 412 kts | 256° |
| 2026-05-06 00:41 | 7.14894 | 81.19982 | 24428 ft | 408 kts | 265° |
| 2026-05-06 00:41 | 7.14750 | 81.17142 | 23871 ft | 405 kts | 268° |
| 2026-05-06 00:41 | 7.14659 | 81.14324 | 23324 ft | 401 kts | 268° |
| 2026-05-06 00:42 | 7.14564 | 81.11523 | 22778 ft | 398 kts | 267° |
| 2026-05-06 00:42 | 7.14451 | 81.08754 | 22219 ft | 394 kts | 267° |
| 2026-05-06 00:42 | 7.14320 | 81.06005 | 21682 ft | 391 kts | 266° |
| 2026-05-06 00:42 | 7.14181 | 81.03281 | 21134 ft | 387 kts | 266° |
| 2026-05-06 00:43 | 7.14040 | 81.00587 | 20595 ft | 384 kts | 266° |
| 2026-05-06 00:43 | 7.13897 | 80.97914 | 20053 ft | 380 kts | 266° |
| 2026-05-06 00:43 | 7.13755 | 80.95272 | 19521 ft | 375 kts | 266° |
| 2026-05-06 00:43 | 7.13613 | 80.92666 | 18971 ft | 371 kts | 266° |
| 2026-05-06 00:44 | 7.13477 | 80.90123 | 18492 ft | 366 kts | 266° |
| 2026-05-06 00:44 | 7.13343 | 80.87575 | 18104 ft | 359 kts | 266° |
| 2026-05-06 00:44 | 7.13213 | 80.85089 | 17810 ft | 351 kts | 266° |
| 2026-05-06 00:44 | 7.13084 | 80.82642 | 17332 ft | 349 kts | 266° |
| 2026-05-06 00:45 | 7.12948 | 80.80213 | 16816 ft | 346 kts | 266° |
| 2026-05-06 00:45 | 7.12817 | 80.77797 | 16306 ft | 344 kts | 266° |
| 2026-05-06 00:45 | 7.12687 | 80.75402 | 15798 ft | 341 kts | 266° |
| 2026-05-06 00:45 | 7.12557 | 80.73022 | 15281 ft | 339 kts | 266° |
| 2026-05-06 00:46 | 7.12430 | 80.70697 | 14783 ft | 337 kts | 266° |
| 2026-05-06 00:46 | 7.12305 | 80.68345 | 14279 ft | 335 kts | 266° |
| 2026-05-06 00:46 | 7.12178 | 80.66011 | 13766 ft | 334 kts | 266° |
| 2026-05-06 00:46 | 7.12049 | 80.63687 | 13259 ft | 330 kts | 266° |
| 2026-05-06 00:47 | 7.11926 | 80.61382 | 12752 ft | 328 kts | 266° |
| 2026-05-06 00:47 | 7.11800 | 80.59093 | 12248 ft | 326 kts | 267° |
| 2026-05-06 00:47 | 7.11676 | 80.56810 | 11752 ft | 325 kts | 267° |
| 2026-05-06 00:47 | 7.11553 | 80.54541 | 11238 ft | 324 kts | 267° |
| 2026-05-06 00:48 | 7.11429 | 80.52279 | 10727 ft | 322 kts | 267° |
| 2026-05-06 00:48 | 7.11307 | 80.50033 | 10256 ft | 320 kts | 267° |
| 2026-05-06 00:48 | 7.11187 | 80.47844 | 10130 ft | 307 kts | 267° |
| 2026-05-06 00:48 | 7.11072 | 80.45737 | 9977 ft | 295 kts | 267° |
| 2026-05-06 00:49 | 7.10961 | 80.43738 | 9840 ft | 284 kts | 267° |
| 2026-05-06 00:49 | 7.11073 | 80.41750 | 9480 ft | 282 kts | 282° |
| 2026-05-06 00:49 | 7.11538 | 80.39865 | 9120 ft | 280 kts | 285° |
| 2026-05-06 00:49 | 7.12053 | 80.37971 | 8746 ft | 280 kts | 285° |
| 2026-05-06 00:50 | 7.12549 | 80.36081 | 8378 ft | 279 kts | 285° |
| 2026-05-06 00:50 | 7.13030 | 80.34191 | 8012 ft | 278 kts | 284° |
| 2026-05-06 00:50 | 7.13502 | 80.32310 | 7644 ft | 277 kts | 284° |
| 2026-05-06 00:50 | 7.13974 | 80.30409 | 7275 ft | 276 kts | 284° |
| 2026-05-06 00:51 | 7.14435 | 80.28544 | 6914 ft | 275 kts | 284° |
| 2026-05-06 00:51 | 7.14891 | 80.26699 | 6560 ft | 274 kts | 284° |
| 2026-05-06 00:51 | 7.15353 | 80.24830 | 6196 ft | 272 kts | 284° |
| 2026-05-06 00:51 | 7.15805 | 80.22990 | 5846 ft | 270 kts | 284° |
| 2026-05-06 00:52 | 7.16258 | 80.21164 | 5494 ft | 269 kts | 284° |
| 2026-05-06 00:52 | 7.16705 | 80.19362 | 5146 ft | 267 kts | 284° |
| 2026-05-06 00:52 | 7.17157 | 80.17530 | 4799 ft | 266 kts | 283° |
| 2026-05-06 00:52 | 7.17604 | 80.15721 | 4456 ft | 265 kts | 284° |
| 2026-05-06 00:53 | 7.18266 | 80.14016 | 4092 ft | 265 kts | 303° |
| 2026-05-06 00:53 | 7.19374 | 80.12554 | 3784 ft | 262 kts | 308° |
| 2026-05-06 00:53 | 7.20505 | 80.11119 | 3442 ft | 261 kts | 307° |
| 2026-05-06 00:53 | 7.21621 | 80.09689 | 3195 ft | 256 kts | 307° |
| 2026-05-06 00:54 | 7.22692 | 80.08303 | 3133 ft | 243 kts | 307° |
| 2026-05-06 00:54 | 7.23695 | 80.07001 | 3114 ft | 225 kts | 307° |
| 2026-05-06 00:54 | 7.24596 | 80.05832 | 3118 ft | 203 kts | 306° |
| 2026-05-06 00:54 | 7.25391 | 80.04749 | 3010 ft | 186 kts | 296° |
| 2026-05-06 00:55 | 7.25711 | 80.03556 | 2894 ft | 169 kts | 279° |
| 2026-05-06 00:55 | 7.25930 | 80.02413 | 2701 ft | 164 kts | 280° |
| 2026-05-06 00:55 | 7.26145 | 80.01324 | 2653 ft | 149 kts | 280° |
| 2026-05-06 00:55 | 7.26337 | 80.00346 | 2528 ft | 139 kts | 280° |
| 2026-05-06 00:56 | 7.26523 | 79.99389 | 2491 ft | 140 kts | 279° |
| 2026-05-06 00:56 | 7.26717 | 79.98391 | 2115 ft | 147 kts | 279° |
| 2026-05-06 00:56 | 7.26911 | 79.97395 | 1851 ft | 141 kts | 279° |
| 2026-05-06 00:56 | 7.27088 | 79.96430 | 1659 ft | 139 kts | 274° |
| 2026-05-06 00:57 | 7.26802 | 79.95550 | 1538 ft | 134 kts | 226° |
| 2026-05-06 00:57 | 7.26145 | 79.94851 | 1500 ft | 139 kts | 225° |
| 2026-05-06 00:57 | 7.25460 | 79.94176 | 1507 ft | 137 kts | 223° |
| 2026-05-06 00:57 | 7.24755 | 79.93522 | 1377 ft | 141 kts | 219° |
| 2026-05-06 00:58 | 7.23994 | 79.92907 | 1200 ft | 139 kts | 217° |
| 2026-05-06 00:58 | 7.23238 | 79.92320 | 1014 ft | 135 kts | 216° |
| 2026-05-06 00:58 | 7.22492 | 79.91745 | 844 ft | 135 kts | 216° |
| 2026-05-06 00:58 | 7.21740 | 79.91166 | 666 ft | 137 kts | 217° |
| 2026-05-06 00:59 | 7.20995 | 79.90579 | 450 ft | 136 kts | 217° |
| 2026-05-06 00:59 | 7.20221 | 79.89988 | 268 ft | 141 kts | 216° |
| 2026-05-06 00:59 | 7.19427 | 79.89388 | 91 ft | 143 kts | 217° |
| 2026-05-06 00:59 | 7.18661 | 79.88804 | 38 ft | 129 kts | 216° |
| 2026-05-06 01:00 | 7.18067 | 79.88350 | 34 ft | 81 kts | 216° |
| 2026-05-06 01:00 | 7.17885 | 79.88248 | 36 ft | 18 kts | 164° |
| 2026-05-06 01:00 | 7.17815 | 79.88314 | 35 ft | 10 kts | 129° |
| 2026-05-06 01:00 | 7.17818 | 79.88378 | 34 ft | 10 kts | 51° |
| 2026-05-06 01:01 | 7.17854 | 79.88435 | 34 ft | 10 kts | 80° |
| 2026-05-06 01:01 | 7.17827 | 79.88492 | 34 ft | 9 kts | 149° |
| 2026-05-06 01:01 | 7.17773 | 79.88473 | 34 ft | 9 kts | 215° |
| 2026-05-06 01:01 | 7.17747 | 79.88456 | 34 ft | 0 kts | 211° |